BGGH

Godthaab / Nuuk  Airport

Nuuk, Greenland

BGGH 191650Z AUTO 06013KT 9999NDV NCD M07/M11 Q1020

Observed Flight Rules
Nov-19 @ 16:50 UTC (an hour ago)
Unavailable
Wind Clouds
60° at 13 knots
  • Clear skies
Temperatures Readings
Current -7°C / 19°F
Dewpoint -11°C / 12°F
Humidity 73%
Altimeter 30.12" Hg
Pressure 1020 hPa
Elevation 70
Observed Flight Rules
Nov-19 @ 16:50 UTC
(an hour ago)
UNK
Wind
60° at 13 knots
Clouds
  • Clear skies
Temperature Dewpoint
-7°C / 19°F -11°C / 12°F
Humidity Altimeter Pressure
73% 30.12" Hg 1020 hPa